createdAt,value
2022-09-01T00:00:01.814Z,17.81
2022-09-01T00:02:34.840Z,17.76
2022-09-01T00:05:06.135Z,17.73
2022-09-01T00:07:36.740Z,17.76
2022-09-01T00:10:08.341Z,17.76
2022-09-01T00:12:37.019Z,17.70
2022-09-01T00:15:07.164Z,17.80
2022-09-01T00:17:35.943Z,17.78
2022-09-01T00:20:04.917Z,17.80
2022-09-01T00:22:33.813Z,17.82
2022-09-01T00:25:03.067Z,17.83
2022-09-01T00:27:31.271Z,17.86
2022-09-01T00:29:59.379Z,17.87
2022-09-01T00:32:27.638Z,17.93
2022-09-01T00:34:55.399Z,17.94
2022-09-01T00:37:24.022Z,17.90
2022-09-01T00:39:51.695Z,17.92
2022-09-01T00:42:21.483Z,17.94
2022-09-01T00:44:49.476Z,17.97
2022-09-01T00:47:19.453Z,17.96
2022-09-01T00:49:50.375Z,17.93
2022-09-01T00:52:23.547Z,17.94
2022-09-01T00:54:58.218Z,17.93
2022-09-01T00:57:28.818Z,17.90
2022-09-01T01:00:01.513Z,17.91
2022-09-01T01:02:29.782Z,17.87
2022-09-01T01:05:00.537Z,17.81
2022-09-01T01:07:29.842Z,17.75
2022-09-01T01:09:58.290Z,17.77
2022-09-01T01:12:28.471Z,17.77
2022-09-01T01:14:57.031Z,17.75
2022-09-01T01:17:26.095Z,17.75
2022-09-01T01:20:14.328Z,17.77
2022-09-01T01:23:06.783Z,17.70
2022-09-01T01:25:41.880Z,17.70
2022-09-01T01:28:16.099Z,17.71
2022-09-01T01:30:52.235Z,17.68
2022-09-01T01:33:22.716Z,17.66
2022-09-01T01:35:52.858Z,17.61
2022-09-01T01:38:23.261Z,17.63
2022-09-01T01:40:55.546Z,17.53
2022-09-01T01:43:26.769Z,17.51
2022-09-01T01:45:59.022Z,17.58
2022-09-01T01:48:34.911Z,17.60
2022-09-01T01:51:04.559Z,17.58
2022-09-01T01:53:34.367Z,17.52
2022-09-01T01:56:06.197Z,17.55
2022-09-01T01:58:37.152Z,17.46
2022-09-01T02:01:13.145Z,17.48
2022-09-01T02:03:41.966Z,17.45
2022-09-01T02:06:12.184Z,17.42
2022-09-01T02:08:42.389Z,17.45
2022-09-01T02:11:13.145Z,17.43
2022-09-01T02:13:41.743Z,17.43
2022-09-01T02:16:13.007Z,17.31
2022-09-01T02:18:48.445Z,17.30
2022-09-01T02:21:19.680Z,17.32
2022-09-01T02:23:49.689Z,17.33
2022-09-01T02:26:23.714Z,17.37
2022-09-01T02:28:55.382Z,17.33
2022-09-01T02:31:28.454Z,17.32
2022-09-01T02:34:01.264Z,17.38
2022-09-01T02:36:32.762Z,17.38
2022-09-01T02:39:02.177Z,17.41
2022-09-01T02:41:34.391Z,17.37
2022-09-01T02:44:04.283Z,17.39
2022-09-01T02:46:32.719Z,17.34
2022-09-01T02:49:04.569Z,17.36
2022-09-01T02:51:33.319Z,17.39
2022-09-01T02:54:01.979Z,17.39
2022-09-01T02:56:31.108Z,17.40
2022-09-01T02:59:02.131Z,17.40
2022-09-01T03:01:33.077Z,17.43
2022-09-01T03:04:06.117Z,17.45
2022-09-01T03:06:36.372Z,17.43
2022-09-01T03:09:07.101Z,17.46
2022-09-01T03:11:38.914Z,17.44
2022-09-01T03:14:08.594Z,17.42
2022-09-01T03:16:37.205Z,17.45
2022-09-01T03:19:07.428Z,17.36
2022-09-01T03:21:35.566Z,17.40
2022-09-01T03:24:04.859Z,17.39
2022-09-01T03:26:32.708Z,17.38
2022-09-01T03:29:02.047Z,17.33
2022-09-01T03:31:31.176Z,17.29
2022-09-01T03:34:03.321Z,17.25
2022-09-01T03:36:35.157Z,17.24
2022-09-01T03:39:03.720Z,17.23
2022-09-01T03:41:33.335Z,17.22
2022-09-01T03:44:02.816Z,17.21
2022-09-01T03:46:36.805Z,17.18
2022-09-01T03:49:08.048Z,17.14
2022-09-01T03:51:38.939Z,17.12
2022-09-01T03:54:09.052Z,17.09
2022-09-01T03:56:40.023Z,17.15
2022-09-01T03:59:16.618Z,17.12
2022-09-01T04:01:46.223Z,17.14
2022-09-01T04:04:15.477Z,17.15
2022-09-01T04:06:44.418Z,17.17
2022-09-01T04:09:12.829Z,17.18
2022-09-01T04:11:46.254Z,17.14
2022-09-01T04:14:17.370Z,17.10
2022-09-01T04:17:05.098Z,17.08
2022-09-01T04:19:36.826Z,17.09
2022-09-01T04:22:05.360Z,17.04
2022-09-01T04:24:46.716Z,17.09
2022-09-01T04:27:15.721Z,17.03
2022-09-01T04:29:48.890Z,17.07
2022-09-01T04:32:17.319Z,17.07
2022-09-01T04:34:52.097Z,16.98
2022-09-01T04:37:22.131Z,16.96
2022-09-01T04:39:57.102Z,16.94
2022-09-01T04:42:28.936Z,16.92
2022-09-01T04:45:01.975Z,16.95
2022-09-01T04:47:35.757Z,16.94
2022-09-01T04:50:14.170Z,16.94
2022-09-01T04:52:45.604Z,16.96
2022-09-01T04:55:28.077Z,16.98
2022-09-01T04:57:56.727Z,16.99
2022-09-01T05:00:32.287Z,16.98
2022-09-01T05:03:04.296Z,16.96
2022-09-01T05:05:54.361Z,17.00
2022-09-01T05:08:25.064Z,17.01
2022-09-01T05:10:58.685Z,17.03
2022-09-01T05:13:38.885Z,17.02
2022-09-01T05:16:13.066Z,17.02
2022-09-01T05:18:48.050Z,17.05
2022-09-01T05:21:18.275Z,17.05
2022-09-01T05:23:47.118Z,17.10
2022-09-01T05:26:18.776Z,17.08
2022-09-01T05:28:48.694Z,17.11
2022-09-01T05:31:19.698Z,17.14
2022-09-01T05:33:48.404Z,17.17
2022-09-01T05:36:20.152Z,17.21
2022-09-01T05:38:49.072Z,17.25
2022-09-01T05:41:19.474Z,17.25
2022-09-01T05:43:49.855Z,17.25
2022-09-01T05:46:25.075Z,17.32
2022-09-01T05:48:56.158Z,17.37
2022-09-01T05:51:45.385Z,17.41
2022-09-01T05:54:15.072Z,17.40
2022-09-01T05:56:44.712Z,17.42
2022-09-01T05:59:25.533Z,17.48
2022-09-01T06:02:00.833Z,17.53
2022-09-01T06:04:30.293Z,17.57
2022-09-01T06:07:08.901Z,17.57
2022-09-01T06:09:40.406Z,17.64
2022-09-01T06:12:17.793Z,17.63
2022-09-01T06:14:47.266Z,17.70
2022-09-01T06:17:22.077Z,17.67
2022-09-01T06:19:52.984Z,17.68
2022-09-01T06:22:21.760Z,17.80
2022-09-01T06:24:55.703Z,17.87
2022-09-01T06:27:30.483Z,17.90
2022-09-01T06:29:58.879Z,18.02
2022-09-01T06:32:28.816Z,18.14
2022-09-01T06:34:58.143Z,18.22
2022-09-01T06:37:26.829Z,18.32
2022-09-01T06:39:59.567Z,18.39
2022-09-01T06:42:29.128Z,18.41
2022-09-01T06:45:00.387Z,18.43
2022-09-01T06:47:30.623Z,18.42
2022-09-01T06:50:00.695Z,18.43
2022-09-01T06:53:32.200Z,18.42
2022-09-01T06:55:18.225Z,18.37
2022-09-01T06:58:15.141Z,18.36
2022-09-01T07:00:50.052Z,18.24
2022-09-01T07:03:20.044Z,18.33
2022-09-01T07:06:00.716Z,18.31
2022-09-01T07:14:27.617Z,18.46
2022-09-01T07:17:23.294Z,18.45
2022-09-01T07:19:49.239Z,18.52
2022-09-01T07:28:06.107Z,18.44
2022-09-01T07:30:35.879Z,18.46
2022-09-01T07:45:25.454Z,18.61
2022-09-01T07:47:57.123Z,18.64
2022-09-01T07:50:40.288Z,18.74
2022-09-01T07:53:12.556Z,18.74
2022-09-01T07:55:42.201Z,18.62
2022-09-01T07:58:12.010Z,18.60
2022-09-01T08:00:43.541Z,18.55
2022-09-01T08:03:11.374Z,18.48
2022-09-01T08:05:39.672Z,18.53
2022-09-01T08:08:28.418Z,18.46
2022-09-01T08:11:04.927Z,18.48
2022-09-01T08:13:38.918Z,18.44
2022-09-01T08:16:17.966Z,18.60
2022-09-01T08:18:48.826Z,18.69
2022-09-01T08:21:52.326Z,18.78
2022-09-01T08:24:37.322Z,18.88
2022-09-01T08:27:06.995Z,18.89
2022-09-01T08:29:35.502Z,18.94
2022-09-01T08:32:04.521Z,19.01
2022-09-01T08:34:33.718Z,19.02
2022-09-01T08:37:01.805Z,18.95
2022-09-01T08:39:30.577Z,19.08
2022-09-01T08:42:09.690Z,19.09
2022-09-01T08:44:47.500Z,19.11
2022-09-01T08:47:28.752Z,19.29
2022-09-01T08:50:01.640Z,19.70
2022-09-01T08:53:09.004Z,20.12
2022-09-01T08:55:43.150Z,20.15
2022-09-01T08:58:16.641Z,20.13
2022-09-01T09:01:11.194Z,20.14
2022-09-01T09:03:47.727Z,20.27
2022-09-01T09:06:21.991Z,20.40
2022-09-01T09:08:56.707Z,20.43
2022-09-01T09:11:51.465Z,20.36
2022-09-01T09:14:44.053Z,20.47
2022-09-01T09:17:13.917Z,20.07
2022-09-01T09:19:43.576Z,19.90
2022-09-01T09:22:13.983Z,20.08
2022-09-01T09:24:50.874Z,20.04
2022-09-01T09:27:21.832Z,20.04
2022-09-01T09:29:53.463Z,20.30
2022-09-01T09:32:22.991Z,20.24
2022-09-01T09:34:53.726Z,20.21
2022-09-01T09:37:24.344Z,20.69
2022-09-01T09:40:11.853Z,21.01
2022-09-01T09:42:40.665Z,21.46
2022-09-01T09:45:23.135Z,21.90
2022-09-01T09:47:51.907Z,21.95
2022-09-01T09:50:25.013Z,21.55
2022-09-01T09:53:11.076Z,21.55
2022-09-01T09:55:56.037Z,21.57
2022-09-01T09:58:27.504Z,21.71
2022-09-01T10:01:07.715Z,21.54
2022-09-01T10:03:38.065Z,21.35
2022-09-01T10:06:11.946Z,21.57
2022-09-01T10:08:45.763Z,21.92
2022-09-01T10:11:33.542Z,21.96
2022-09-01T10:14:07.211Z,22.23
2022-09-01T10:16:39.865Z,22.12
2022-09-01T10:19:12.549Z,22.21
2022-09-01T10:21:43.390Z,22.17
2022-09-01T10:24:21.452Z,21.88
2022-09-01T10:26:54.251Z,22.40
2022-09-01T10:29:26.974Z,22.93
2022-09-01T10:32:21.291Z,23.27
2022-09-01T10:34:47.555Z,23.15
2022-09-01T10:37:16.332Z,22.85
2022-09-01T10:40:21.069Z,22.63
2022-09-01T10:42:57.582Z,22.70
2022-09-01T10:45:33.319Z,23.24
2022-09-01T10:48:46.121Z,23.74
2022-09-01T10:51:51.543Z,24.50
2022-09-01T10:54:58.510Z,25.01
2022-09-01T10:57:51.359Z,25.68
2022-09-01T11:03:56.493Z,26.01
2022-09-01T11:07:12.742Z,25.79
2022-09-01T11:09:43.117Z,25.99
2022-09-01T11:12:36.814Z,26.34
2022-09-01T11:15:26.866Z,26.57
2022-09-01T11:17:59.629Z,26.77
2022-09-01T11:20:33.376Z,26.54
2022-09-01T11:23:05.416Z,26.56
2022-09-01T11:25:40.635Z,25.86
2022-09-01T11:28:45.013Z,25.78
2022-09-01T11:31:23.772Z,25.58
2022-09-01T11:34:01.122Z,25.67
2022-09-01T11:36:35.757Z,25.64
2022-09-01T11:39:09.896Z,25.70
2022-09-01T11:41:55.858Z,25.79
2022-09-01T11:44:28.118Z,25.51
2022-09-01T11:47:02.405Z,25.67
2022-09-01T11:49:32.818Z,25.48
2022-09-01T11:52:03.634Z,25.28
2022-09-01T11:54:40.403Z,25.24
2022-09-01T11:57:23.960Z,24.74
2022-09-01T11:59:52.232Z,24.48
2022-09-01T12:02:23.423Z,24.36
2022-09-01T12:04:53.187Z,24.42
2022-09-01T12:07:31.662Z,24.47
2022-09-01T12:09:59.423Z,24.56
2022-09-01T12:12:31.813Z,24.65
2022-09-01T12:15:06.112Z,24.75
2022-09-01T12:17:34.845Z,24.56
2022-09-01T12:20:24.308Z,24.40
2022-09-01T12:22:56.759Z,24.10
2022-09-01T12:25:27.122Z,24.23
2022-09-01T12:27:56.099Z,24.08
2022-09-01T12:30:24.966Z,23.94
2022-09-01T12:33:22.954Z,24.14
2022-09-01T12:35:42.163Z,24.07
2022-09-01T12:38:31.264Z,24.10
2022-09-01T12:40:59.987Z,24.30
2022-09-01T12:43:35.342Z,24.29
2022-09-01T12:46:04.615Z,24.46
2022-09-01T12:48:34.586Z,24.57
2022-09-01T12:51:04.868Z,24.51
2022-09-01T12:53:37.093Z,23.91
2022-09-01T12:56:29.755Z,23.85
2022-09-01T12:59:10.745Z,23.92
2022-09-01T13:01:45.012Z,23.96
2022-09-01T13:04:29.778Z,24.09
2022-09-01T13:07:03.856Z,23.94
2022-09-01T13:09:33.199Z,24.17
2022-09-01T13:12:13.200Z,24.24
2022-09-01T13:14:40.856Z,24.41
2022-09-01T13:17:14.066Z,24.33
2022-09-01T13:19:42.523Z,24.37
2022-09-01T13:22:11.301Z,24.50
2022-09-01T13:24:40.856Z,24.62
2022-09-01T13:27:24.307Z,24.67
2022-09-01T13:29:52.847Z,24.62
2022-09-01T13:32:22.864Z,24.62
2022-09-01T13:34:53.596Z,24.37
2022-09-01T13:37:22.929Z,23.96
2022-09-01T13:39:52.056Z,24.13
2022-09-01T13:42:20.857Z,23.91
2022-09-01T13:44:52.594Z,23.68
2022-09-01T13:47:31.853Z,23.84
2022-09-01T13:50:18.724Z,23.82
2022-09-01T13:52:55.255Z,23.90
2022-09-01T13:55:27.379Z,23.73
2022-09-01T13:57:55.968Z,23.63
2022-09-01T14:00:25.593Z,23.51
2022-09-01T14:02:56.542Z,23.54
2022-09-01T14:05:26.897Z,23.60
2022-09-01T14:07:56.216Z,23.60
2022-09-01T14:10:26.762Z,23.67
2022-09-01T14:12:55.163Z,23.58
2022-09-01T14:15:27.155Z,23.62
2022-09-01T14:17:57.430Z,23.52
2022-09-01T14:20:26.947Z,23.57
2022-09-01T14:22:56.360Z,23.46
2022-09-01T14:25:26.447Z,23.53
2022-09-01T14:27:54.740Z,23.70
2022-09-01T14:30:29.040Z,23.87
2022-09-01T14:33:00.317Z,24.00
2022-09-01T14:35:28.814Z,23.96
2022-09-01T14:37:59.477Z,24.06
2022-09-01T14:40:29.171Z,24.03
2022-09-01T14:42:57.369Z,24.01
2022-09-01T14:45:27.639Z,23.99
2022-09-01T14:47:57.469Z,23.81
2022-09-01T14:50:26.642Z,23.84
2022-09-01T14:52:57.641Z,23.73
2022-09-01T14:55:28.481Z,23.64
2022-09-01T14:57:58.365Z,23.52
2022-09-01T15:00:26.489Z,23.55
2022-09-01T15:02:56.344Z,23.47
2022-09-01T15:05:25.046Z,23.30
2022-09-01T15:07:54.755Z,23.39
2022-09-01T15:10:25.811Z,23.25
2022-09-01T15:12:58.472Z,23.31
2022-09-01T15:15:27.876Z,23.70
2022-09-01T15:17:56.723Z,23.67
2022-09-01T15:20:42.690Z,23.93
2022-09-01T15:23:11.688Z,23.89
2022-09-01T15:25:39.455Z,24.09
2022-09-01T15:28:10.429Z,24.32
2022-09-01T15:30:39.806Z,24.52
2022-09-01T15:33:13.213Z,24.24
2022-09-01T15:35:43.653Z,24.45
2022-09-01T15:38:16.163Z,24.87
2022-09-01T15:40:57.840Z,25.41
2022-09-01T15:43:28.664Z,25.75
2022-09-01T15:45:58.257Z,25.80
2022-09-01T15:48:28.070Z,25.40
2022-09-01T15:51:18.338Z,25.51
2022-09-01T15:53:46.790Z,25.36
2022-09-01T15:56:14.494Z,25.19
2022-09-01T15:59:00.098Z,24.62
2022-09-01T16:01:30.304Z,24.38
2022-09-01T16:03:58.106Z,24.01
2022-09-01T16:06:26.399Z,23.87
2022-09-01T16:08:54.790Z,23.63
2022-09-01T16:11:24.019Z,23.55
2022-09-01T16:13:54.500Z,23.41
2022-09-01T16:16:38.656Z,23.15
2022-09-01T16:19:21.385Z,23.16
2022-09-01T16:21:54.707Z,22.97
2022-09-01T16:24:23.356Z,22.94
2022-09-01T16:26:51.019Z,22.86
2022-09-01T16:29:35.879Z,22.84
2022-09-01T16:32:03.885Z,22.77
2022-09-01T16:34:32.947Z,22.78
2022-09-01T16:37:07.207Z,22.67
2022-09-01T16:39:43.486Z,22.58
2022-09-01T16:42:22.120Z,22.53
2022-09-01T16:45:02.007Z,22.47
2022-09-01T16:47:48.951Z,22.42
2022-09-01T16:50:28.582Z,22.33
2022-09-01T16:53:16.355Z,22.29
2022-09-01T16:55:58.759Z,22.28
2022-09-01T16:58:39.124Z,22.30
2022-09-01T17:01:23.675Z,22.24
2022-09-01T17:04:06.522Z,22.20
2022-09-01T17:06:40.973Z,22.13
2022-09-01T17:09:12.994Z,22.09
2022-09-01T17:11:49.441Z,22.07
2022-09-01T17:14:22.502Z,22.02
2022-09-01T17:16:55.418Z,22.03
2022-09-01T17:19:23.575Z,21.98
2022-09-01T17:21:57.135Z,21.88
2022-09-01T17:24:35.135Z,21.69
2022-09-01T17:27:10.940Z,21.52
2022-09-01T17:29:43.485Z,21.40
2022-09-01T17:32:22.179Z,21.25
2022-09-01T17:34:58.219Z,21.14
2022-09-01T17:37:40.318Z,21.00
2022-09-01T17:40:18.560Z,20.84
2022-09-01T17:42:55.200Z,20.75
2022-09-01T17:45:29.041Z,20.65
2022-09-01T17:48:08.931Z,20.57
2022-09-01T17:53:32.033Z,20.29
2022-09-01T17:56:08.030Z,20.17
2022-09-01T17:58:47.815Z,20.08
2022-09-01T18:01:25.590Z,19.94
2022-09-01T18:04:13.607Z,19.85
2022-09-01T18:06:49.058Z,19.83
2022-09-01T18:09:21.533Z,19.68
2022-09-01T18:11:55.193Z,19.55
2022-09-01T18:14:28.172Z,19.49
2022-09-01T18:17:03.653Z,19.38
2022-09-01T18:19:38.198Z,19.32
2022-09-01T18:22:11.227Z,19.27
2022-09-01T18:24:48.455Z,19.19
2022-09-01T18:27:16.689Z,19.13
2022-09-01T18:29:46.347Z,19.04
2022-09-01T18:32:25.333Z,19.00
2022-09-01T18:35:04.366Z,18.96
2022-09-01T18:37:43.019Z,18.94
2022-09-01T18:40:20.003Z,18.93
2022-09-01T18:42:58.056Z,18.86
2022-09-01T18:45:35.871Z,18.84
2022-09-01T18:48:16.881Z,18.77
2022-09-01T18:50:53.113Z,18.71
2022-09-01T18:53:34.345Z,18.64
2022-09-01T18:56:07.620Z,18.54
2022-09-01T18:58:50.944Z,18.42
2022-09-01T19:01:30.291Z,18.31
2022-09-01T19:04:10.391Z,18.22
2022-09-01T19:06:53.134Z,18.21
2022-09-01T19:09:28.627Z,18.12
2022-09-01T19:12:10.531Z,18.03
2022-09-01T19:14:46.352Z,17.99
2022-09-01T19:17:42.089Z,17.99
2022-09-01T19:20:13.465Z,17.91
2022-09-01T19:22:50.423Z,17.86
2022-09-01T19:25:37.507Z,17.84
2022-09-01T19:28:12.517Z,17.72
2022-09-01T19:30:47.662Z,17.68
2022-09-01T19:33:19.963Z,17.59
2022-09-01T19:35:52.459Z,17.60
2022-09-01T19:38:27.732Z,17.58
2022-09-01T19:41:02.315Z,17.51
2022-09-01T19:43:34.774Z,17.49
2022-09-01T19:46:13.199Z,17.45
2022-09-01T19:48:47.627Z,17.34
2022-09-01T19:51:20.228Z,17.28
2022-09-01T19:53:55.486Z,17.22
2022-09-01T19:56:28.840Z,17.19
2022-09-01T19:59:01.604Z,17.22
2022-09-01T20:01:40.508Z,17.16
2022-09-01T20:04:18.820Z,17.15
2022-09-01T20:06:51.274Z,17.09
2022-09-01T20:09:26.100Z,17.02
2022-09-01T20:11:58.794Z,16.98
2022-09-01T20:14:45.705Z,16.96
2022-09-01T20:17:21.720Z,16.91
2022-09-01T20:19:56.600Z,16.89
2022-09-01T20:22:32.540Z,16.85
2022-09-01T20:25:10.140Z,16.82
2022-09-01T20:27:48.388Z,16.77
2022-09-01T20:30:20.095Z,16.73
2022-09-01T20:32:55.178Z,16.65
2022-09-01T20:35:30.553Z,16.60
2022-09-01T20:38:03.167Z,16.55
2022-09-01T20:40:36.009Z,16.46
2022-09-01T20:43:12.897Z,16.40
2022-09-01T20:45:40.992Z,16.37
2022-09-01T20:48:14.710Z,16.32
2022-09-01T20:50:52.822Z,16.26
2022-09-01T20:53:37.505Z,16.21
2022-09-01T20:56:12.984Z,16.14
2022-09-01T20:58:44.737Z,16.09
2022-09-01T21:01:19.214Z,16.03
2022-09-01T21:03:58.832Z,16.01
2022-09-01T21:06:40.187Z,16.02
2022-09-01T21:09:13.670Z,15.99
2022-09-01T21:11:48.471Z,15.98
2022-09-01T21:14:31.503Z,15.98
2022-09-01T21:17:08.907Z,15.96
2022-09-01T21:19:47.400Z,15.95
2022-09-01T21:22:21.684Z,15.95
2022-09-01T21:24:51.199Z,15.92
2022-09-01T21:27:24.220Z,15.90
2022-09-01T21:29:58.534Z,15.85
2022-09-01T21:32:27.403Z,15.78
2022-09-01T21:34:55.572Z,15.69
2022-09-01T21:37:24.275Z,15.62
2022-09-01T21:39:54.364Z,15.55
2022-09-01T21:42:27.010Z,15.52
2022-09-01T21:44:57.191Z,15.49
2022-09-01T21:47:25.443Z,15.45
2022-09-01T21:49:53.492Z,15.39
2022-09-01T21:52:21.354Z,15.33
2022-09-01T21:54:49.783Z,15.30
2022-09-01T21:57:17.658Z,15.23
2022-09-01T21:59:47.180Z,15.21
2022-09-01T22:02:14.930Z,15.15
2022-09-01T22:04:43.461Z,15.12
2022-09-01T22:07:15.123Z,14.99
2022-09-01T22:09:43.550Z,14.96
2022-09-01T22:12:12.035Z,14.95
2022-09-01T22:14:39.862Z,14.95
2022-09-01T22:17:08.962Z,14.93
2022-09-01T22:19:36.943Z,14.90
2022-09-01T22:22:05.167Z,14.87
2022-09-01T22:24:33.853Z,14.84
2022-09-01T22:27:01.595Z,14.81
2022-09-01T22:29:29.738Z,14.68
2022-09-01T22:31:57.377Z,14.71
2022-09-01T22:34:26.955Z,14.68
2022-09-01T22:36:54.596Z,14.61
2022-09-01T22:39:25.250Z,14.58
2022-09-01T22:41:53.967Z,14.52
2022-09-01T22:44:22.408Z,14.47
2022-09-01T22:46:50.282Z,14.46
2022-09-01T22:49:18.759Z,14.46
2022-09-01T22:51:47.776Z,14.42
2022-09-01T22:54:16.286Z,14.43
2022-09-01T22:56:45.161Z,14.43
2022-09-01T22:59:15.312Z,14.42
2022-09-01T23:01:47.588Z,14.39
2022-09-01T23:04:17.607Z,14.37
2022-09-01T23:06:49.563Z,14.35
2022-09-01T23:09:19.752Z,14.32
2022-09-01T23:11:49.077Z,14.33
2022-09-01T23:14:18.498Z,14.31
2022-09-01T23:16:47.082Z,14.28
2022-09-01T23:19:20.251Z,14.22
2022-09-01T23:21:51.025Z,14.20
2022-09-01T23:24:19.904Z,14.19
2022-09-01T23:26:48.387Z,14.18
2022-09-01T23:29:16.752Z,14.13
2022-09-01T23:31:44.612Z,14.13
2022-09-01T23:34:13.875Z,14.05
2022-09-01T23:36:42.841Z,13.93
2022-09-01T23:39:11.967Z,13.92
2022-09-01T23:41:40.194Z,13.85
2022-09-01T23:44:10.412Z,13.78
2022-09-01T23:46:41.000Z,13.73
2022-09-01T23:49:09.613Z,13.72
2022-09-01T23:51:38.831Z,13.63
2022-09-01T23:54:07.211Z,13.49
2022-09-01T23:56:36.723Z,13.38
2022-09-01T23:59:04.936Z,13.33
